createdAt,value
2023-02-02T00:09:14.719Z,76.01
2023-02-02T00:19:36.089Z,76.65
2023-02-02T00:29:57.523Z,77.96
2023-02-02T00:40:18.885Z,77.31
2023-02-02T00:50:40.264Z,78.42
2023-02-02T01:01:01.650Z,81.49
2023-02-02T01:11:23.444Z,80.43
2023-02-02T01:21:44.961Z,80.99
2023-02-02T01:32:06.465Z,80.24
2023-02-02T01:42:27.830Z,81.33
2023-02-02T01:52:51.004Z,82.67
2023-02-02T02:03:13.894Z,82.58
2023-02-02T02:13:55.678Z,81.61
2023-02-02T02:24:59.229Z,83.18
2023-02-02T02:35:28.002Z,85.05
2023-02-02T02:45:50.544Z,84.50
2023-02-02T02:56:22.821Z,85.35
2023-02-02T03:06:44.150Z,84.91
2023-02-02T03:17:05.497Z,85.35
2023-02-02T03:27:27.851Z,85.18
2023-02-02T03:37:49.192Z,85.12
2023-02-02T03:48:10.536Z,84.95
2023-02-02T03:58:31.916Z,84.15
2023-02-02T04:08:53.420Z,85.17
2023-02-02T04:19:14.864Z,84.84
2023-02-02T04:29:36.229Z,85.48
2023-02-02T04:39:57.680Z,85.23
2023-02-02T04:50:19.021Z,85.56
2023-02-02T05:00:40.413Z,85.99
2023-02-02T05:11:06.020Z,87.36
2023-02-02T05:21:27.743Z,88.16
2023-02-02T05:31:49.239Z,87.49
2023-02-02T05:42:10.672Z,88.36
2023-02-02T05:52:33.638Z,89.09
2023-02-02T06:02:55.121Z,89.60
2023-02-02T06:13:16.528Z,90.60
2023-02-02T06:23:38.254Z,90.25
2023-02-02T06:33:59.753Z,90.58
2023-02-02T06:44:21.170Z,91.12
2023-02-02T06:54:42.547Z,92.14
2023-02-02T07:05:04.076Z,91.26
2023-02-02T07:15:25.879Z,91.15
2023-02-02T07:25:47.503Z,91.85
2023-02-02T07:36:09.232Z,92.43
2023-02-02T07:46:30.825Z,91.84
2023-02-02T07:56:52.196Z,91.28
2023-02-02T08:07:15.040Z,90.86
2023-02-02T08:17:37.458Z,90.20
2023-02-02T08:27:58.868Z,89.38
2023-02-02T08:38:20.223Z,88.42
2023-02-02T08:48:41.978Z,88.36
2023-02-02T08:59:04.859Z,88.35
2023-02-02T09:09:26.308Z,88.48
2023-02-02T09:19:47.752Z,88.28
2023-02-02T09:30:09.443Z,88.80
2023-02-02T09:40:32.852Z,88.42
2023-02-02T09:51:03.868Z,88.66
2023-02-02T10:01:30.619Z,87.80
2023-02-02T10:11:59.958Z,88.49
2023-02-02T10:22:23.144Z,88.95
2023-02-02T10:32:50.650Z,88.79
2023-02-02T10:43:45.744Z,88.76
2023-02-02T10:54:26.038Z,88.78
2023-02-02T11:05:06.208Z,88.12
2023-02-02T11:15:30.946Z,88.43
2023-02-02T11:26:05.234Z,88.19
2023-02-02T11:36:26.625Z,87.62
2023-02-02T11:46:49.124Z,87.25
2023-02-02T11:57:10.611Z,86.64
2023-02-02T12:07:32.808Z,86.20
2023-02-02T12:18:06.267Z,85.73
2023-02-02T12:28:36.894Z,84.92
2023-02-02T12:39:17.108Z,84.52
2023-02-02T12:49:40.226Z,84.77
2023-02-02T13:00:20.042Z,84.52
2023-02-02T13:10:47.304Z,84.27
2023-02-02T13:21:12.409Z,83.69
2023-02-02T13:31:38.760Z,83.07
2023-02-02T13:42:02.812Z,83.14
2023-02-02T13:52:30.165Z,82.57
2023-02-02T14:02:56.612Z,82.44
2023-02-02T14:13:41.454Z,82.83
2023-02-02T14:24:22.747Z,83.24
2023-02-02T14:34:44.838Z,83.31
2023-02-02T14:45:07.906Z,83.88
2023-02-02T14:55:29.774Z,84.57
2023-02-02T15:06:01.629Z,84.72
2023-02-02T15:16:29.601Z,85.58
2023-02-02T15:26:51.326Z,85.29
2023-02-02T15:37:15.837Z,84.96
2023-02-02T15:47:39.682Z,85.49
2023-02-02T15:58:02.978Z,85.83
2023-02-02T16:08:27.490Z,85.15
2023-02-02T16:19:00.834Z,86.74
2023-02-02T16:29:22.324Z,87.50
2023-02-02T16:39:44.073Z,89.39
2023-02-02T16:50:08.565Z,91.56
2023-02-02T17:00:31.418Z,91.48
2023-02-02T17:11:02.112Z,93.16
2023-02-02T17:21:24.709Z,93.11
2023-02-02T17:31:46.232Z,94.14
2023-02-02T17:42:24.988Z,94.85
2023-02-02T17:52:48.265Z,95.09
2023-02-02T18:03:11.971Z,95.43
2023-02-02T18:13:33.440Z,95.72
2023-02-02T18:23:54.825Z,95.61
2023-02-02T18:34:16.248Z,95.74
2023-02-02T18:44:38.468Z,96.55
2023-02-02T18:55:00.180Z,95.78
2023-02-02T19:05:40.385Z,96.50
2023-02-02T19:16:03.179Z,97.40
2023-02-02T19:26:25.620Z,97.89
2023-02-02T19:36:49.260Z,98.18
2023-02-02T19:47:30.389Z,98.65
2023-02-02T19:58:00.580Z,98.96
2023-02-02T20:08:37.223Z,98.62
2023-02-02T20:18:58.611Z,99.04
2023-02-02T20:29:22.373Z,99.90
2023-02-02T20:39:48.195Z,100.00
2023-02-02T20:50:10.237Z,100.00
2023-02-02T21:00:31.963Z,100.00
2023-02-02T21:10:53.345Z,98.66
2023-02-02T21:21:16.371Z,99.03
2023-02-02T21:31:39.846Z,98.92
2023-02-02T21:42:01.413Z,98.11
2023-02-02T21:52:22.901Z,97.87
2023-02-02T22:02:47.995Z,98.43
2023-02-02T22:13:21.792Z,97.89
2023-02-02T22:23:43.351Z,97.50
2023-02-02T22:34:04.690Z,97.35
2023-02-02T22:44:26.032Z,96.94
2023-02-02T22:54:47.425Z,96.53
2023-02-02T23:05:10.155Z,95.80
2023-02-02T23:15:31.788Z,95.64
2023-02-02T23:25:53.120Z,95.36
2023-02-02T23:36:14.502Z,95.33
2023-02-02T23:46:36.678Z,94.39
2023-02-02T23:56:58.556Z,94.15
